createdAt,value
2017-05-20T04:00:57.128Z,0.58
2017-05-20T04:03:25.412Z,0.80
2017-05-20T04:05:53.683Z,0.56
2017-05-20T04:08:22.032Z,0.94
2017-05-20T04:10:50.308Z,0.94
2017-05-20T04:13:18.585Z,1.22
2017-05-20T04:15:46.929Z,0.72
2017-05-20T04:18:15.212Z,2.82
2017-05-20T04:20:43.488Z,0.82
2017-05-20T04:23:11.329Z,0.82
2017-05-20T04:25:38.838Z,0.70
2017-05-20T04:28:06.347Z,0.64
2017-05-20T04:30:34.676Z,0.50
2017-05-20T04:33:02.953Z,1.64
2017-05-20T04:35:30.463Z,0.72
2017-05-20T04:37:58.792Z,0.70
2017-05-20T04:40:27.067Z,0.98
2017-05-20T04:42:55.340Z,0.60
2017-05-20T04:45:23.664Z,0.70
2017-05-20T04:47:51.939Z,0.82
2017-05-20T04:50:20.293Z,1.94
2017-05-20T04:52:52.956Z,2.52
2017-05-20T04:55:21.345Z,1.28
2017-05-20T04:57:49.620Z,2.84
2017-05-20T05:00:18.050Z,0.50
2017-05-20T05:02:46.380Z,0.92
2017-05-20T05:05:14.668Z,1.48
2017-05-20T05:07:42.945Z,0.70
2017-05-20T05:10:11.271Z,1.42
2017-05-20T05:12:39.584Z,0.94
2017-05-20T05:15:07.876Z,1.52
2017-05-20T05:17:36.217Z,0.84
2017-05-20T05:20:04.512Z,3.66
2017-05-20T05:22:33.114Z,2.24
2017-05-20T05:25:01.444Z,1.56
2017-05-20T05:27:29.728Z,1.34
2017-05-20T05:29:58.013Z,3.10
2017-05-20T05:32:26.341Z,1.90
2017-05-20T05:34:54.623Z,1.64
2017-05-20T05:37:23.317Z,3.90
2017-05-20T05:39:51.655Z,1.92
2017-05-20T05:42:19.944Z,2.52
2017-05-20T05:44:48.237Z,2.98
2017-05-20T05:47:16.576Z,3.34
2017-05-20T05:49:44.864Z,3.34
2017-05-20T05:52:13.205Z,3.14
2017-05-20T05:54:41.585Z,3.22
2017-05-20T05:57:09.872Z,2.44
2017-05-20T05:59:38.264Z,2.50
2017-05-20T06:02:06.660Z,2.50
2017-05-20T06:04:34.947Z,2.58
2017-05-20T06:07:03.363Z,3.20
2017-05-20T06:09:31.643Z,2.40
2017-05-20T06:12:00.024Z,2.24
2017-05-20T06:14:28.704Z,2.34
2017-05-20T06:16:56.996Z,3.42
2017-05-20T06:19:25.283Z,2.14
2017-05-20T06:21:53.619Z,1.54
2017-05-20T06:24:21.950Z,2.98
2017-05-20T06:26:50.244Z,2.62
2017-05-20T06:29:18.524Z,1.80
2017-05-20T06:31:46.848Z,7.78
2017-05-20T06:34:15.136Z,3.54
2017-05-20T06:36:43.491Z,5.40
2017-05-20T06:39:11.777Z,6.72
2017-05-20T06:41:40.133Z,3.26
2017-05-20T06:44:08.514Z,3.42
2017-05-20T06:46:36.789Z,2.12
2017-05-20T06:49:05.074Z,1.86
2017-05-20T06:51:33.399Z,4.84
2017-05-20T06:54:01.692Z,6.44
2017-05-20T06:56:29.971Z,4.42
2017-05-20T06:58:58.286Z,5.82
2017-05-20T07:01:26.671Z,2.80
2017-05-20T07:03:54.957Z,2.76
2017-05-20T07:06:23.239Z,2.48
2017-05-20T07:08:51.673Z,3.54
2017-05-20T07:11:19.969Z,2.72
2017-05-20T07:13:48.247Z,4.90
2017-05-20T07:16:16.566Z,3.60
2017-05-20T07:18:44.900Z,1.46
2017-05-20T07:21:13.250Z,2.76
2017-05-20T07:23:41.532Z,3.58
2017-05-20T07:26:09.872Z,3.90
2017-05-20T07:28:38.153Z,3.78
2017-05-20T07:31:06.432Z,3.78
2017-05-20T07:33:34.756Z,4.64
2017-05-20T07:36:03.036Z,4.30
2017-05-20T07:38:31.324Z,5.22
2017-05-20T07:40:59.659Z,4.68
2017-05-20T07:43:28.289Z,3.66
2017-05-20T07:45:56.620Z,6.32
2017-05-20T07:48:24.952Z,2.52
2017-05-20T07:50:53.239Z,5.00
2017-05-20T07:53:21.535Z,5.06
2017-05-20T07:55:49.863Z,4.62
2017-05-20T07:58:18.153Z,3.28
2017-05-20T08:00:46.468Z,3.38
2017-05-20T08:03:14.848Z,6.58
2017-05-20T08:05:43.148Z,2.20
2017-05-20T08:08:11.598Z,2.26
2017-05-20T08:10:39.879Z,5.16
2017-05-20T08:13:08.251Z,2.98
2017-05-20T08:15:36.575Z,3.32
2017-05-20T08:18:04.857Z,3.82
2017-05-20T08:20:33.181Z,2.16
2017-05-20T08:23:01.504Z,2.78
2017-05-20T08:25:29.825Z,1.58
2017-05-20T08:27:58.142Z,1.74
2017-05-20T08:30:26.456Z,1.94
2017-05-20T08:32:54.740Z,5.94
2017-05-20T08:35:23.072Z,3.82
2017-05-20T08:37:51.510Z,1.98
2017-05-20T08:40:19.819Z,1.92
2017-05-20T08:42:48.105Z,3.26
2017-05-20T08:45:16.433Z,2.32
2017-05-20T08:47:44.712Z,3.14
2017-05-20T08:50:13.091Z,2.62
2017-05-20T08:52:41.411Z,1.16
2017-05-20T08:55:09.816Z,2.58
2017-05-20T08:57:38.127Z,2.12
2017-05-20T09:00:06.492Z,2.92
2017-05-20T09:02:34.845Z,2.02
2017-05-20T09:05:03.135Z,0.72
2017-05-20T09:07:31.486Z,1.90
2017-05-20T09:09:59.812Z,1.30
2017-05-20T09:12:28.096Z,1.70
2017-05-20T09:14:56.385Z,1.40
2017-05-20T09:17:24.700Z,2.70
2017-05-20T09:19:53.021Z,2.64
2017-05-20T09:22:21.332Z,1.94
2017-05-20T09:24:49.628Z,1.50
2017-05-20T09:27:17.953Z,1.44
2017-05-20T09:29:46.233Z,3.40
2017-05-20T09:32:14.526Z,1.12
2017-05-20T09:34:42.875Z,1.08
2017-05-20T09:37:11.234Z,1.42
2017-05-20T09:39:39.564Z,2.20
2017-05-20T09:42:07.864Z,1.00
2017-05-20T09:44:36.164Z,1.02
2017-05-20T09:47:04.486Z,1.74
2017-05-20T09:49:32.916Z,1.22
2017-05-20T09:52:01.204Z,1.10
2017-05-20T09:54:29.592Z,2.54
2017-05-20T09:56:57.927Z,3.04
2017-05-20T09:59:26.204Z,1.12
2017-05-20T10:01:54.484Z,1.60
2017-05-20T10:04:22.804Z,1.42
2017-05-20T10:06:51.140Z,0.82
2017-05-20T10:09:19.416Z,1.54
2017-05-20T10:11:47.699Z,1.86
2017-05-20T10:14:16.031Z,1.08
2017-05-20T10:16:44.316Z,1.14
2017-05-20T10:19:12.625Z,1.28
2017-05-20T10:21:40.963Z,1.48
2017-05-20T10:24:09.274Z,1.94
2017-05-20T10:26:37.552Z,0.92
2017-05-20T10:29:05.948Z,1.48
2017-05-20T10:31:34.224Z,0.80
2017-05-20T10:34:02.577Z,1.00
2017-05-20T10:36:30.909Z,2.66
2017-05-20T10:38:59.204Z,1.16
2017-05-20T10:41:27.484Z,1.42
2017-05-20T10:43:55.877Z,0.98
2017-05-20T10:46:24.159Z,0.66
2017-05-20T10:48:52.452Z,1.56
2017-05-20T10:51:20.782Z,0.60
2017-05-20T10:53:49.065Z,0.80
2017-05-20T10:56:17.339Z,1.52
2017-05-20T10:58:45.656Z,1.74
2017-05-20T11:01:13.943Z,0.70
2017-05-20T11:03:42.225Z,1.86
2017-05-20T11:06:10.665Z,0.64
2017-05-20T11:08:38.986Z,1.06
2017-05-20T11:11:07.281Z,1.38
2017-05-20T11:13:35.691Z,1.14
2017-05-20T11:16:03.980Z,1.24
2017-05-20T11:18:32.257Z,1.70
2017-05-20T11:21:00.592Z,0.96
2017-05-20T11:23:28.871Z,0.62
2017-05-20T11:25:57.273Z,1.04
2017-05-20T11:28:25.649Z,0.60
2017-05-20T11:30:53.928Z,1.76
2017-05-20T11:33:22.203Z,0.88
2017-05-20T11:35:50.517Z,1.18
2017-05-20T11:38:18.860Z,4.26
2017-05-20T11:40:47.193Z,2.10
2017-05-20T11:43:15.471Z,0.96
2017-05-20T11:45:43.772Z,2.12
2017-05-20T11:48:12.171Z,1.58
2017-05-20T11:50:40.452Z,0.90
2017-05-20T11:53:08.738Z,1.60
2017-05-20T11:55:37.052Z,2.20
2017-05-20T11:58:05.377Z,0.76
2017-05-20T12:00:33.659Z,1.22
2017-05-20T12:03:02.007Z,1.28
2017-05-20T12:05:30.362Z,1.48
2017-05-20T12:07:58.635Z,0.76
2017-05-20T12:10:26.911Z,1.96
2017-05-20T12:12:55.237Z,1.98
2017-05-20T12:15:23.523Z,2.28
2017-05-20T12:17:51.824Z,0.76
2017-05-20T12:20:20.159Z,1.52
2017-05-20T12:22:48.443Z,1.22
2017-05-20T12:25:16.719Z,1.38
2017-05-20T12:27:45.071Z,5.18
2017-05-20T12:30:13.392Z,1.84
2017-05-20T12:32:41.709Z,1.86
2017-05-20T12:35:10.020Z,3.42
2017-05-20T12:37:38.300Z,1.24
2017-05-20T12:40:06.680Z,1.86
2017-05-20T12:42:34.960Z,2.32
2017-05-20T12:45:03.235Z,1.80
2017-05-20T12:47:30.792Z,1.24
2017-05-20T12:49:59.154Z,1.40
2017-05-20T12:52:27.428Z,1.82
2017-05-20T12:54:55.780Z,1.34
2017-05-20T12:57:23.329Z,1.76
2017-05-20T12:59:51.661Z,1.34
2017-05-20T13:02:19.936Z,0.78
2017-05-20T13:04:48.212Z,1.76
2017-05-20T13:07:16.559Z,1.44
2017-05-20T13:09:44.911Z,1.72
2017-05-20T13:12:13.189Z,1.58
2017-05-20T13:14:41.527Z,1.58
2017-05-20T13:17:09.808Z,1.24
2017-05-20T13:19:38.117Z,1.82
2017-05-20T13:22:06.494Z,1.44
2017-05-20T13:24:34.792Z,1.38
2017-05-20T13:27:03.067Z,1.98
2017-05-20T13:29:31.430Z,1.60
2017-05-20T13:31:59.793Z,1.24
2017-05-20T13:34:28.163Z,1.34
2017-05-20T13:36:56.555Z,2.70
2017-05-20T13:39:24.889Z,0.84
2017-05-20T13:41:53.307Z,1.52
2017-05-20T13:44:21.624Z,2.02
2017-05-20T13:46:49.900Z,2.24
2017-05-20T13:49:18.220Z,1.46
2017-05-20T13:51:46.616Z,4.12
2017-05-20T13:54:14.989Z,0.90
2017-05-20T13:56:43.308Z,1.12
2017-05-20T13:59:11.623Z,1.24
2017-05-20T14:01:39.955Z,0.86
2017-05-20T14:04:08.390Z,2.00
2017-05-20T14:06:36.775Z,3.20
2017-05-20T14:09:05.153Z,1.68
2017-05-20T14:11:33.471Z,2.50
2017-05-20T14:14:01.748Z,2.58
2017-05-20T14:16:30.027Z,4.20
2017-05-20T14:18:58.348Z,1.48
2017-05-20T14:21:26.625Z,2.70
2017-05-20T14:23:55.000Z,2.42
2017-05-20T14:26:23.381Z,3.16
2017-05-20T14:28:51.753Z,3.16
2017-05-20T14:31:20.134Z,3.20
2017-05-20T14:33:48.424Z,3.42
2017-05-20T14:36:16.789Z,1.74
2017-05-20T14:38:45.169Z,3.32
2017-05-20T14:41:13.448Z,5.20
2017-05-20T14:43:41.728Z,2.18
2017-05-20T14:46:10.056Z,3.02
2017-05-20T14:48:38.348Z,3.94
2017-05-20T14:51:06.624Z,2.96
2017-05-20T14:53:34.963Z,2.94
2017-05-20T14:56:05.221Z,3.58
2017-05-20T14:58:33.616Z,2.78
2017-05-20T15:01:01.891Z,4.14
2017-05-20T15:03:30.371Z,3.18
2017-05-20T15:05:58.647Z,3.78
2017-05-20T15:08:26.925Z,3.90
2017-05-20T15:10:55.293Z,3.98
2017-05-20T15:13:23.673Z,5.06
2017-05-20T15:15:51.947Z,3.18
2017-05-20T15:18:20.428Z,4.84
2017-05-20T15:20:48.705Z,1.90
2017-05-20T15:23:17.080Z,3.82
2017-05-20T15:25:45.435Z,6.68
2017-05-20T15:28:13.836Z,10.28
2017-05-20T15:30:42.215Z,8.98
2017-05-20T15:33:10.704Z,13.10
2017-05-20T15:35:38.979Z,9.94
2017-05-20T15:38:07.289Z,11.88
2017-05-20T15:40:35.668Z,6.70
2017-05-20T15:43:03.996Z,10.04
2017-05-20T15:45:32.374Z,17.16
2017-05-20T15:48:00.687Z,8.92
2017-05-20T15:50:28.983Z,9.82
2017-05-20T15:52:57.376Z,6.88
2017-05-20T15:55:25.659Z,10.68
2017-05-20T15:57:54.053Z,5.08
2017-05-20T16:00:22.373Z,5.16
2017-05-20T16:02:50.812Z,7.74
2017-05-20T16:05:19.096Z,9.06
2017-05-20T16:07:47.372Z,3.66
2017-05-20T16:10:15.736Z,9.78
2017-05-20T16:12:44.109Z,9.16
2017-05-20T16:15:12.484Z,9.04
2017-05-20T16:17:40.813Z,3.22
2017-05-20T16:20:09.099Z,4.16
2017-05-20T16:22:37.388Z,8.78
2017-05-20T16:25:05.725Z,3.30
2017-05-20T16:27:34.000Z,6.72
2017-05-20T16:30:02.276Z,4.30
2017-05-20T16:32:30.644Z,4.92
2017-05-20T16:34:58.932Z,5.82
2017-05-20T16:37:27.216Z,5.98
2017-05-20T16:39:55.548Z,6.28
2017-05-20T16:42:23.828Z,6.84
2017-05-20T16:44:52.104Z,4.80
2017-05-20T16:47:20.459Z,6.28
2017-05-20T16:49:48.784Z,2.70
2017-05-20T16:52:17.064Z,6.24
2017-05-20T16:54:45.504Z,4.10
2017-05-20T16:57:13.828Z,4.90
2017-05-20T16:59:42.148Z,4.54
2017-05-20T17:02:10.436Z,4.76
2017-05-20T17:04:38.771Z,2.70
2017-05-20T17:07:07.081Z,5.16
2017-05-20T17:09:35.364Z,8.24
2017-05-20T17:12:03.688Z,3.92
2017-05-20T17:14:31.970Z,2.68
2017-05-20T17:17:00.256Z,5.92
2017-05-20T17:19:28.620Z,5.58
2017-05-20T17:21:57.088Z,5.24
2017-05-20T17:24:25.408Z,4.16
2017-05-20T17:26:53.720Z,4.00
2017-05-20T17:29:22.048Z,3.98
2017-05-20T17:31:50.453Z,5.82
2017-05-20T17:34:18.745Z,3.90
2017-05-20T17:36:47.128Z,8.36
2017-05-20T17:39:15.576Z,3.98
2017-05-20T17:41:43.856Z,3.22
2017-05-20T17:44:11.419Z,2.82
2017-05-20T17:46:39.700Z,3.74
2017-05-20T17:49:07.979Z,2.88
2017-05-20T17:51:36.288Z,5.10
2017-05-20T17:54:04.632Z,5.12
2017-05-20T17:56:32.912Z,5.60
2017-05-20T17:59:01.183Z,4.96
2017-05-20T18:01:29.534Z,3.36
2017-05-20T18:03:57.816Z,2.12
2017-05-20T18:06:26.103Z,5.12
2017-05-20T18:08:54.432Z,2.52
2017-05-20T18:11:22.708Z,2.34
2017-05-20T18:13:50.992Z,6.76
2017-05-20T18:16:19.384Z,1.72
2017-05-20T18:18:47.705Z,5.10
2017-05-20T18:21:15.991Z,2.08
2017-05-20T18:23:44.417Z,4.72
2017-05-20T18:26:12.790Z,4.30
2017-05-20T18:28:41.072Z,2.54
2017-05-20T18:31:09.359Z,3.08
2017-05-20T18:33:37.740Z,3.14
2017-05-20T18:36:06.099Z,1.96
2017-05-20T18:38:34.479Z,7.00
2017-05-20T18:41:02.848Z,1.62
2017-05-20T18:43:31.125Z,2.72
2017-05-20T18:45:59.451Z,2.22
2017-05-20T18:48:27.728Z,4.32
2017-05-20T18:50:56.028Z,3.64
2017-05-20T18:53:24.355Z,3.32
2017-05-20T18:55:52.636Z,1.88
2017-05-20T18:58:20.940Z,2.38
2017-05-20T19:00:49.262Z,2.30
2017-05-20T19:03:17.539Z,1.50
2017-05-20T19:05:45.860Z,2.30
2017-05-20T19:08:14.135Z,2.16
2017-05-20T19:10:42.423Z,2.32
2017-05-20T19:13:10.739Z,7.12
2017-05-20T19:15:39.017Z,3.32
2017-05-20T19:18:07.303Z,4.42
2017-05-20T19:20:35.619Z,2.10
2017-05-20T19:23:03.934Z,1.88
2017-05-20T19:25:32.214Z,5.94
2017-05-20T19:28:00.532Z,2.12
2017-05-20T19:30:28.867Z,1.88
2017-05-20T19:32:57.145Z,2.02
2017-05-20T19:35:25.432Z,3.52
2017-05-20T19:37:53.788Z,1.96
2017-05-20T19:40:22.119Z,4.96
2017-05-20T19:42:50.401Z,2.70
2017-05-20T19:45:18.921Z,4.82
2017-05-20T19:47:47.203Z,1.90
2017-05-20T19:50:15.484Z,3.62
2017-05-20T19:52:43.805Z,3.78
2017-05-20T19:55:12.111Z,2.18
2017-05-20T19:57:40.472Z,2.68
2017-05-20T20:00:08.802Z,1.74
2017-05-20T20:02:37.081Z,2.28
2017-05-20T20:05:05.358Z,2.28
2017-05-20T20:07:33.760Z,2.94
2017-05-20T20:10:02.040Z,2.28
2017-05-20T20:12:30.325Z,1.98
2017-05-20T20:14:58.643Z,1.88
2017-05-20T20:17:26.948Z,2.72
2017-05-20T20:19:55.265Z,2.78
2017-05-20T20:22:23.600Z,4.94
2017-05-20T20:24:51.893Z,3.28
2017-05-20T20:27:19.456Z,1.92
2017-05-20T20:29:47.736Z,3.44
2017-05-20T20:32:16.116Z,1.34
2017-05-20T20:34:43.664Z,3.42
2017-05-20T20:37:11.940Z,1.42
2017-05-20T20:39:40.257Z,0.90
2017-05-20T20:42:08.535Z,6.00
2017-05-20T20:44:36.054Z,2.80
2017-05-20T20:47:04.372Z,2.22
2017-05-20T20:49:32.664Z,4.14
2017-05-20T20:52:00.995Z,1.98
2017-05-20T20:54:29.316Z,1.38
2017-05-20T20:56:57.592Z,1.76
2017-05-20T20:59:25.920Z,2.30
2017-05-20T21:01:54.205Z,3.10
2017-05-20T21:04:22.512Z,1.48
2017-05-20T21:06:50.835Z,1.58
2017-05-20T21:09:19.113Z,1.40
2017-05-20T21:11:47.443Z,2.46
2017-05-20T21:14:15.793Z,1.54
2017-05-20T21:16:44.086Z,2.34
2017-05-20T21:19:12.369Z,1.88
2017-05-20T21:21:40.921Z,1.86
2017-05-20T21:24:09.222Z,1.38
2017-05-20T21:26:37.509Z,1.16
2017-05-20T21:29:05.900Z,1.86
2017-05-20T21:31:34.180Z,1.16
2017-05-20T21:34:02.596Z,0.96
2017-05-20T21:36:30.908Z,1.74
2017-05-20T21:38:59.308Z,2.02
2017-05-20T21:41:27.625Z,1.54
2017-05-20T21:43:56.008Z,1.60
2017-05-20T21:46:24.316Z,1.98
2017-05-20T21:48:52.784Z,1.24
2017-05-20T21:51:21.072Z,1.50
2017-05-20T21:53:49.379Z,1.28
